sensor_id;sensor_type;location;lat;lon;timestamp;pressure;altitude;pressure_sealevel;temperature;humidity
59531;BME280;45349;48.692;8.186;2022-09-09T00:01:13;98329.31;;;18.98;55.42
59531;BME280;45349;48.692;8.186;2022-09-09T00:03:52;98322.56;;;18.96;55.49
59531;BME280;45349;48.692;8.186;2022-09-09T00:06:24;98318.31;;;18.95;55.91
59531;BME280;45349;48.692;8.186;2022-09-09T00:09:00;98313.25;;;18.93;55.29
59531;BME280;45349;48.692;8.186;2022-09-09T00:11:36;98315.06;;;18.99;54.84
59531;BME280;45349;48.692;8.186;2022-09-09T00:14:13;98314.25;;;18.92;55.66
59531;BME280;45349;48.692;8.186;2022-09-09T00:16:45;98316.31;;;18.90;55.89
59531;BME280;45349;48.692;8.186;2022-09-09T00:19:19;98328.53;;;18.84;56.52
59531;BME280;45349;48.692;8.186;2022-09-09T00:21:54;98322.88;;;18.81;55.98
59531;BME280;45349;48.692;8.186;2022-09-09T00:24:28;98318.81;;;18.78;56.25
59531;BME280;45349;48.692;8.186;2022-09-09T00:27:01;98326.19;;;18.69;58.59
59531;BME280;45349;48.692;8.186;2022-09-09T00:29:34;98320.53;;;18.59;60.64
59531;BME280;45349;48.692;8.186;2022-09-09T00:32:12;98328.28;;;18.54;59.57
59531;BME280;45349;48.692;8.186;2022-09-09T00:34:47;98337.69;;;18.43;63.78
59531;BME280;45349;48.692;8.186;2022-09-09T00:37:15;98341.94;;;18.44;59.18
59531;BME280;45349;48.692;8.186;2022-09-09T00:39:44;98358.03;;;18.36;63.58
59531;BME280;45349;48.692;8.186;2022-09-09T00:42:14;98360.94;;;18.07;70.08
59531;BME280;45349;48.692;8.186;2022-09-09T00:44:52;98382.88;;;17.88;69.06
59531;BME280;45349;48.692;8.186;2022-09-09T00:47:38;98386.13;;;17.63;71.20
59531;BME280;45349;48.692;8.186;2022-09-09T00:50:15;98399.28;;;17.36;73.33
59531;BME280;45349;48.692;8.186;2022-09-09T00:52:47;98400.88;;;17.23;74.09
59531;BME280;45349;48.692;8.186;2022-09-09T00:55:26;98401.84;;;17.09;76.19
59531;BME280;45349;48.692;8.186;2022-09-09T00:57:55;98395.31;;;16.91;77.77
59531;BME280;45349;48.692;8.186;2022-09-09T01:00:24;98408.84;;;16.81;79.04
59531;BME280;45349;48.692;8.186;2022-09-09T01:03:06;98397.47;;;16.74;78.79
59531;BME280;45349;48.692;8.186;2022-09-09T01:05:43;98392.56;;;16.64;78.09
59531;BME280;45349;48.692;8.186;2022-09-09T01:08:25;98389.09;;;16.64;78.79
59531;BME280;45349;48.692;8.186;2022-09-09T01:10:59;98404.28;;;16.62;80.50
59531;BME280;45349;48.692;8.186;2022-09-09T01:13:30;98387.63;;;16.48;82.71
59531;BME280;45349;48.692;8.186;2022-09-09T01:16:04;98384.97;;;16.41;79.59
59531;BME280;45349;48.692;8.186;2022-09-09T01:18:37;98370.72;;;16.35;84.67
59531;BME280;45349;48.692;8.186;2022-09-09T01:21:15;98370.25;;;16.25;82.90
59531;BME280;45349;48.692;8.186;2022-09-09T01:24:03;98377.91;;;16.13;87.45
59531;BME280;45349;48.692;8.186;2022-09-09T01:26:50;98373.16;;;16.02;85.20
59531;BME280;45349;48.692;8.186;2022-09-09T01:29:24;98386.88;;;15.97;89.55
59531;BME280;45349;48.692;8.186;2022-09-09T01:31:54;98391.13;;;15.91;91.50
59531;BME280;45349;48.692;8.186;2022-09-09T01:34:22;98390.84;;;15.86;93.93
59531;BME280;45349;48.692;8.186;2022-09-09T01:36:56;98397.06;;;15.78;90.02
59531;BME280;45349;48.692;8.186;2022-09-09T01:39:25;98375.00;;;15.79;88.59
59531;BME280;45349;48.692;8.186;2022-09-09T01:42:01;98355.97;;;15.77;90.81
59531;BME280;45349;48.692;8.186;2022-09-09T01:44:29;98350.84;;;15.69;89.65
59531;BME280;45349;48.692;8.186;2022-09-09T01:46:56;98354.41;;;15.61;91.40
59531;BME280;45349;48.692;8.186;2022-09-09T01:49:23;98362.63;;;15.52;93.66
59531;BME280;45349;48.692;8.186;2022-09-09T01:51:53;98354.44;;;15.40;95.13
59531;BME280;45349;48.692;8.186;2022-09-09T01:54:29;98341.97;;;15.27;96.23
59531;BME280;45349;48.692;8.186;2022-09-09T01:57:06;98328.72;;;15.13;97.30
59531;BME280;45349;48.692;8.186;2022-09-09T01:59:47;98325.56;;;15.03;97.55
59531;BME280;45349;48.692;8.186;2022-09-09T02:02:18;98327.69;;;14.93;97.79
59531;BME280;45349;48.692;8.186;2022-09-09T02:05:03;98319.75;;;14.86;97.64
59531;BME280;45349;48.692;8.186;2022-09-09T02:07:38;98327.94;;;14.76;98.75
59531;BME280;45349;48.692;8.186;2022-09-09T02:10:18;98331.75;;;14.73;99.58
59531;BME280;45349;48.692;8.186;2022-09-09T02:13:00;98319.44;;;14.74;99.95
59531;BME280;45349;48.692;8.186;2022-09-09T02:15:32;98305.19;;;14.68;99.93
59531;BME280;45349;48.692;8.186;2022-09-09T02:18:01;98303.66;;;14.59;100.00
59531;BME280;45349;48.692;8.186;2022-09-09T02:20:32;98297.88;;;14.49;99.98
59531;BME280;45349;48.692;8.186;2022-09-09T02:23:00;98296.19;;;14.41;98.39
59531;BME280;45349;48.692;8.186;2022-09-09T02:25:29;98291.31;;;14.38;99.07
59531;BME280;45349;48.692;8.186;2022-09-09T02:28:07;98296.19;;;14.41;98.75
59531;BME280;45349;48.692;8.186;2022-09-09T02:30:37;98288.94;;;14.43;99.23
59531;BME280;45349;48.692;8.186;2022-09-09T02:33:07;98294.19;;;14.43;99.61
59531;BME280;45349;48.692;8.186;2022-09-09T02:35:46;98297.63;;;14.43;99.40
59531;BME280;45349;48.692;8.186;2022-09-09T02:38:20;98293.56;;;14.41;98.44
59531;BME280;45349;48.692;8.186;2022-09-09T02:40:58;98290.47;;;14.37;99.27
59531;BME280;45349;48.692;8.186;2022-09-09T02:43:31;98297.09;;;14.33;98.27
59531;BME280;45349;48.692;8.186;2022-09-09T02:46:03;98291.03;;;14.32;97.46
59531;BME280;45349;48.692;8.186;2022-09-09T02:48:40;98282.72;;;14.29;97.36
59531;BME280;45349;48.692;8.186;2022-09-09T02:51:18;98292.22;;;14.30;96.91
59531;BME280;45349;48.692;8.186;2022-09-09T02:53:58;98296.66;;;14.29;96.83
59531;BME280;45349;48.692;8.186;2022-09-09T02:56:29;98303.53;;;14.30;99.04
59531;BME280;45349;48.692;8.186;2022-09-09T02:59:03;98302.72;;;14.30;98.23
59531;BME280;45349;48.692;8.186;2022-09-09T03:04:06;98317.09;;;14.49;95.02
59531;BME280;45349;48.692;8.186;2022-09-09T03:06:33;98314.53;;;14.56;94.97
59531;BME280;45349;48.692;8.186;2022-09-09T03:09:12;98310.38;;;14.61;94.11
59531;BME280;45349;48.692;8.186;2022-09-09T03:11:38;98312.44;;;14.66;93.66
59531;BME280;45349;48.692;8.186;2022-09-09T03:14:07;98299.41;;;14.73;94.01
59531;BME280;45349;48.692;8.186;2022-09-09T03:16:37;98303.31;;;14.77;90.80
59531;BME280;45349;48.692;8.186;2022-09-09T03:19:03;98307.19;;;14.81;92.01
59531;BME280;45349;48.692;8.186;2022-09-09T03:21:31;98306.59;;;14.86;90.46
59531;BME280;45349;48.692;8.186;2022-09-09T03:23:58;98314.63;;;14.99;87.92
59531;BME280;45349;48.692;8.186;2022-09-09T03:26:25;98324.81;;;15.09;87.66
59531;BME280;45349;48.692;8.186;2022-09-09T03:28:52;98318.03;;;15.15;88.40
59531;BME280;45349;48.692;8.186;2022-09-09T03:31:23;98329.72;;;15.12;88.16
59531;BME280;45349;48.692;8.186;2022-09-09T03:33:51;98303.25;;;15.14;87.29
59531;BME280;45349;48.692;8.186;2022-09-09T03:36:20;98307.06;;;15.11;86.30
59531;BME280;45349;48.692;8.186;2022-09-09T03:38:47;98306.88;;;15.13;84.99
59531;BME280;45349;48.692;8.186;2022-09-09T03:41:14;98314.56;;;15.14;84.59
59531;BME280;45349;48.692;8.186;2022-09-09T03:43:41;98312.94;;;15.13;86.70
59531;BME280;45349;48.692;8.186;2022-09-09T03:46:08;98302.38;;;15.07;84.38
59531;BME280;45349;48.692;8.186;2022-09-09T03:48:36;98307.00;;;15.04;85.61
59531;BME280;45349;48.692;8.186;2022-09-09T03:51:04;98306.66;;;14.93;87.22
59531;BME280;45349;48.692;8.186;2022-09-09T03:53:32;98307.59;;;14.85;90.00
59531;BME280;45349;48.692;8.186;2022-09-09T03:56:01;98303.66;;;14.74;89.52
59531;BME280;45349;48.692;8.186;2022-09-09T03:58:30;98310.28;;;14.70;90.56
59531;BME280;45349;48.692;8.186;2022-09-09T04:01:06;98310.28;;;14.70;92.10
59531;BME280;45349;48.692;8.186;2022-09-09T04:03:37;98304.53;;;14.66;92.28
59531;BME280;45349;48.692;8.186;2022-09-09T04:06:05;98302.66;;;14.60;92.75
59531;BME280;45349;48.692;8.186;2022-09-09T04:08:33;98302.41;;;14.55;94.83
59531;BME280;45349;48.692;8.186;2022-09-09T04:11:02;98302.81;;;14.37;95.54
59531;BME280;45349;48.692;8.186;2022-09-09T04:13:33;98303.91;;;14.27;96.93
59531;BME280;45349;48.692;8.186;2022-09-09T04:16:02;98300.94;;;14.15;97.40
59531;BME280;45349;48.692;8.186;2022-09-09T04:18:30;98299.81;;;14.10;99.16
59531;BME280;45349;48.692;8.186;2022-09-09T04:21:00;98303.81;;;14.06;99.17
59531;BME280;45349;48.692;8.186;2022-09-09T04:23:29;98301.19;;;14.06;99.02
59531;BME280;45349;48.692;8.186;2022-09-09T04:25:58;98312.41;;;13.99;98.51
59531;BME280;45349;48.692;8.186;2022-09-09T04:28:27;98309.97;;;13.98;99.81
59531;BME280;45349;48.692;8.186;2022-09-09T04:30:55;98318.47;;;14.00;99.00
59531;BME280;45349;48.692;8.186;2022-09-09T04:33:24;98321.53;;;14.03;98.56
59531;BME280;45349;48.692;8.186;2022-09-09T04:35:52;98312.94;;;14.10;97.44
59531;BME280;45349;48.692;8.186;2022-09-09T04:38:25;98323.38;;;14.18;97.42
59531;BME280;45349;48.692;8.186;2022-09-09T04:40:52;98319.66;;;14.27;96.16
59531;BME280;45349;48.692;8.186;2022-09-09T04:43:20;98327.97;;;14.46;90.92
59531;BME280;45349;48.692;8.186;2022-09-09T04:45:49;98326.19;;;14.68;88.83
59531;BME280;45349;48.692;8.186;2022-09-09T04:48:19;98327.94;;;14.76;88.87
59531;BME280;45349;48.692;8.186;2022-09-09T04:50:55;98337.16;;;14.87;90.52
59531;BME280;45349;48.692;8.186;2022-09-09T04:53:24;98343.28;;;14.94;89.02
59531;BME280;45349;48.692;8.186;2022-09-09T04:55:52;98333.09;;;15.06;85.87
59531;BME280;45349;48.692;8.186;2022-09-09T04:58:20;98339.59;;;15.32;80.17
59531;BME280;45349;48.692;8.186;2022-09-09T05:00:49;98334.00;;;15.42;81.54
59531;BME280;45349;48.692;8.186;2022-09-09T05:03:18;98331.44;;;15.48;82.13
59531;BME280;45349;48.692;8.186;2022-09-09T05:05:45;98337.44;;;15.64;82.30
59531;BME280;45349;48.692;8.186;2022-09-09T05:08:12;98337.19;;;15.59;80.29
59531;BME280;45349;48.692;8.186;2022-09-09T05:10:40;98336.72;;;15.48;81.33
59531;BME280;45349;48.692;8.186;2022-09-09T05:13:07;98344.34;;;15.43;81.54
59531;BME280;45349;48.692;8.186;2022-09-09T05:15:35;98333.38;;;15.40;80.30
59531;BME280;45349;48.692;8.186;2022-09-09T05:18:02;98342.47;;;15.37;80.25
59531;BME280;45349;48.692;8.186;2022-09-09T05:20:31;98351.00;;;15.39;81.76
59531;BME280;45349;48.692;8.186;2022-09-09T05:23:16;98347.38;;;15.40;81.06
59531;BME280;45349;48.692;8.186;2022-09-09T05:25:54;98347.47;;;15.54;78.87
59531;BME280;45349;48.692;8.186;2022-09-09T05:28:23;98345.41;;;15.49;80.26
59531;BME280;45349;48.692;8.186;2022-09-09T05:30:58;98350.03;;;15.47;82.45
59531;BME280;45349;48.692;8.186;2022-09-09T05:33:27;98350.66;;;15.49;82.77
59531;BME280;45349;48.692;8.186;2022-09-09T05:35:59;98346.72;;;15.60;79.98
59531;BME280;45349;48.692;8.186;2022-09-09T05:38:27;98349.63;;;15.72;78.66
59531;BME280;45349;48.692;8.186;2022-09-09T05:40:56;98352.56;;;15.84;78.18
59531;BME280;45349;48.692;8.186;2022-09-09T05:43:24;98364.59;;;15.93;78.00
59531;BME280;45349;48.692;8.186;2022-09-09T05:45:59;98361.25;;;16.06;79.55
59531;BME280;45349;48.692;8.186;2022-09-09T05:48:29;98362.97;;;16.20;76.05
59531;BME280;45349;48.692;8.186;2022-09-09T05:50:56;98361.97;;;16.28;75.74
59531;BME280;45349;48.692;8.186;2022-09-09T05:53:23;98360.00;;;16.37;73.10
59531;BME280;45349;48.692;8.186;2022-09-09T05:56:00;98365.09;;;16.45;75.09
59531;BME280;45349;48.692;8.186;2022-09-09T05:58:30;98358.44;;;16.49;73.91
59531;BME280;45349;48.692;8.186;2022-09-09T06:01:04;98361.09;;;16.56;74.87
59531;BME280;45349;48.692;8.186;2022-09-09T06:03:32;98362.78;;;16.71;73.25
59531;BME280;45349;48.692;8.186;2022-09-09T06:06:00;98362.84;;;16.84;70.18
59531;BME280;45349;48.692;8.186;2022-09-09T06:08:27;98364.25;;;16.87;76.35
59531;BME280;45349;48.692;8.186;2022-09-09T06:11:02;98352.72;;;16.94;75.15
59531;BME280;45349;48.692;8.186;2022-09-09T06:13:30;98364.50;;;16.99;76.99
59531;BME280;45349;48.692;8.186;2022-09-09T06:15:58;98365.75;;;17.03;77.90
59531;BME280;45349;48.692;8.186;2022-09-09T06:18:26;98358.88;;;17.08;78.42
59531;BME280;45349;48.692;8.186;2022-09-09T06:20:55;98364.75;;;17.17;77.31
59531;BME280;45349;48.692;8.186;2022-09-09T06:23:22;98358.91;;;17.22;77.70
59531;BME280;45349;48.692;8.186;2022-09-09T06:25:49;98353.44;;;17.30;78.23
59531;BME280;45349;48.692;8.186;2022-09-09T06:28:18;98355.88;;;17.38;77.62
59531;BME280;45349;48.692;8.186;2022-09-09T06:30:45;98360.53;;;17.43;78.67
59531;BME280;45349;48.692;8.186;2022-09-09T06:33:12;98363.59;;;17.47;80.21
59531;BME280;45349;48.692;8.186;2022-09-09T06:35:39;98364.78;;;17.51;79.04
59531;BME280;45349;48.692;8.186;2022-09-09T06:38:06;98362.16;;;17.58;78.07
59531;BME280;45349;48.692;8.186;2022-09-09T06:40:34;98368.47;;;17.56;75.80
59531;BME280;45349;48.692;8.186;2022-09-09T06:43:01;98361.97;;;17.66;75.93
59531;BME280;45349;48.692;8.186;2022-09-09T06:45:40;98365.22;;;17.75;76.63
59531;BME280;45349;48.692;8.186;2022-09-09T06:48:07;98365.84;;;17.70;73.41
59531;BME280;45349;48.692;8.186;2022-09-09T06:50:35;98369.88;;;17.66;73.27
59531;BME280;45349;48.692;8.186;2022-09-09T06:53:03;98364.81;;;17.71;71.22
59531;BME280;45349;48.692;8.186;2022-09-09T06:55:30;98362.16;;;17.78;72.72
59531;BME280;45349;48.692;8.186;2022-09-09T06:57:56;98363.16;;;17.90;71.04
59531;BME280;45349;48.692;8.186;2022-09-09T07:00:23;98360.72;;;18.09;67.77
59531;BME280;45349;48.692;8.186;2022-09-09T07:02:52;98364.38;;;18.21;70.57
59531;BME280;45349;48.692;8.186;2022-09-09T07:05:19;98357.47;;;18.20;69.57
59531;BME280;45349;48.692;8.186;2022-09-09T07:07:46;98367.81;;;18.22;70.04
59531;BME280;45349;48.692;8.186;2022-09-09T07:10:16;98368.78;;;18.34;69.71
59531;BME280;45349;48.692;8.186;2022-09-09T07:12:43;98373.44;;;18.46;68.31
59531;BME280;45349;48.692;8.186;2022-09-09T07:15:11;98376.81;;;18.66;66.88
59531;BME280;45349;48.692;8.186;2022-09-09T07:17:42;98383.88;;;18.86;64.78
59531;BME280;45349;48.692;8.186;2022-09-09T07:20:11;98387.97;;;18.82;65.45
59531;BME280;45349;48.692;8.186;2022-09-09T07:22:38;98384.94;;;18.71;65.49
59531;BME280;45349;48.692;8.186;2022-09-09T07:25:06;98374.31;;;18.85;64.93
59531;BME280;45349;48.692;8.186;2022-09-09T07:27:34;98389.31;;;19.05;66.41
59531;BME280;45349;48.692;8.186;2022-09-09T07:30:01;98381.38;;;18.98;66.15
59531;BME280;45349;48.692;8.186;2022-09-09T07:32:31;98389.94;;;19.00;65.38
59531;BME280;45349;48.692;8.186;2022-09-09T07:34:58;98394.38;;;19.06;63.75
59531;BME280;45349;48.692;8.186;2022-09-09T07:37:28;98378.75;;;18.91;64.37
59531;BME280;45349;48.692;8.186;2022-09-09T07:39:54;98391.66;;;19.13;64.56
59531;BME280;45349;48.692;8.186;2022-09-09T07:42:21;98391.59;;;19.26;64.41
59531;BME280;45349;48.692;8.186;2022-09-09T07:44:48;98396.03;;;19.65;61.51
59531;BME280;45349;48.692;8.186;2022-09-09T07:47:16;98406.22;;;19.61;62.71
59531;BME280;45349;48.692;8.186;2022-09-09T07:49:46;98411.47;;;20.00;60.42
59531;BME280;45349;48.692;8.186;2022-09-09T07:52:18;98405.31;;;20.06;61.01
59531;BME280;45349;48.692;8.186;2022-09-09T07:55:06;98410.31;;;20.33;60.77
59531;BME280;45349;48.692;8.186;2022-09-09T07:57:34;98424.69;;;20.44;60.81
59531;BME280;45349;48.692;8.186;2022-09-09T08:00:03;98408.84;;;19.93;61.60
59531;BME280;45349;48.692;8.186;2022-09-09T08:02:37;98409.50;;;20.14;60.92
59531;BME280;45349;48.692;8.186;2022-09-09T08:05:05;98420.97;;;20.08;61.57
59531;BME280;45349;48.692;8.186;2022-09-09T08:07:32;98428.84;;;20.14;60.81
59531;BME280;45349;48.692;8.186;2022-09-09T08:09:59;98414.34;;;20.17;61.14
59531;BME280;45349;48.692;8.186;2022-09-09T08:12:31;98420.78;;;19.77;62.13
59531;BME280;45349;48.692;8.186;2022-09-09T08:14:58;98421.25;;;19.99;61.75
59531;BME280;45349;48.692;8.186;2022-09-09T08:17:29;98430.66;;;19.95;61.88
59531;BME280;45349;48.692;8.186;2022-09-09T08:19:58;98428.66;;;19.90;63.71
59531;BME280;45349;48.692;8.186;2022-09-09T08:22:30;98425.19;;;19.90;62.16
59531;BME280;45349;48.692;8.186;2022-09-09T08:24:58;98422.94;;;19.61;62.35
59531;BME280;45349;48.692;8.186;2022-09-09T08:27:26;98426.25;;;19.82;62.24
59531;BME280;45349;48.692;8.186;2022-09-09T08:29:55;98426.00;;;19.90;61.67
59531;BME280;45349;48.692;8.186;2022-09-09T08:32:22;98431.41;;;20.02;59.08
59531;BME280;45349;48.692;8.186;2022-09-09T08:34:49;98439.31;;;20.09;60.55
59531;BME280;45349;48.692;8.186;2022-09-09T08:37:21;98437.44;;;19.84;61.89
59531;BME280;45349;48.692;8.186;2022-09-09T08:39:48;98437.47;;;19.77;61.42
59531;BME280;45349;48.692;8.186;2022-09-09T08:42:30;98437.38;;;20.16;60.52
59531;BME280;45349;48.692;8.186;2022-09-09T08:45:14;98436.75;;;20.21;60.96
59531;BME280;45349;48.692;8.186;2022-09-09T08:47:53;98439.03;;;20.36;57.84
59531;BME280;45349;48.692;8.186;2022-09-09T08:50:25;98438.28;;;20.29;60.05
59531;BME280;45349;48.692;8.186;2022-09-09T08:53:16;98437.06;;;20.31;59.26
59531;BME280;45349;48.692;8.186;2022-09-09T08:55:47;98437.56;;;20.40;59.95
59531;BME280;45349;48.692;8.186;2022-09-09T08:58:19;98442.44;;;20.43;60.30
59531;BME280;45349;48.692;8.186;2022-09-09T09:01:17;98426.69;;;20.67;60.09
59531;BME280;45349;48.692;8.186;2022-09-09T09:03:56;98438.88;;;20.31;59.92
59531;BME280;45349;48.692;8.186;2022-09-09T09:06:38;98440.53;;;20.06;61.51
59531;BME280;45349;48.692;8.186;2022-09-09T09:09:13;98435.59;;;19.85;62.57
59531;BME280;45349;48.692;8.186;2022-09-09T09:11:48;98428.38;;;19.99;65.61
59531;BME280;45349;48.692;8.186;2022-09-09T09:14:19;98425.00;;;19.91;63.21
59531;BME280;45349;48.692;8.186;2022-09-09T09:17:11;98425.00;;;19.91;64.64
59531;BME280;45349;48.692;8.186;2022-09-09T09:19:42;98421.41;;;20.04;66.75
59531;BME280;45349;48.692;8.186;2022-09-09T09:22:16;98414.03;;;20.06;64.10
59531;BME280;45349;48.692;8.186;2022-09-09T09:24:51;98426.81;;;20.35;65.22
59531;BME280;45349;48.692;8.186;2022-09-09T09:27:28;98432.13;;;20.54;63.42
59531;BME280;45349;48.692;8.186;2022-09-09T09:29:58;98432.81;;;20.49;62.26
59531;BME280;45349;48.692;8.186;2022-09-09T09:32:33;98429.47;;;20.35;62.10
59531;BME280;45349;48.692;8.186;2022-09-09T09:35:06;98430.13;;;20.30;62.20
59531;BME280;45349;48.692;8.186;2022-09-09T09:37:36;98432.84;;;20.24;64.62
59531;BME280;45349;48.692;8.186;2022-09-09T09:40:08;98427.75;;;19.71;63.20
59531;BME280;45349;48.692;8.186;2022-09-09T09:42:36;98432.25;;;19.39;66.00
59531;BME280;45349;48.692;8.186;2022-09-09T09:45:16;98437.66;;;19.12;69.28
59531;BME280;45349;48.692;8.186;2022-09-09T09:47:59;98439.91;;;19.15;69.79
59531;BME280;45349;48.692;8.186;2022-09-09T09:50:28;98449.47;;;19.16;71.95
59531;BME280;45349;48.692;8.186;2022-09-09T09:52:56;98440.00;;;19.33;72.77
59531;BME280;45349;48.692;8.186;2022-09-09T09:55:26;98439.97;;;19.40;70.70
59531;BME280;45349;48.692;8.186;2022-09-09T09:58:01;98450.84;;;19.25;72.25
59531;BME280;45349;48.692;8.186;2022-09-09T10:00:29;98455.53;;;19.23;69.86
59531;BME280;45349;48.692;8.186;2022-09-09T10:03:14;98453.47;;;19.25;69.49
59531;BME280;45349;48.692;8.186;2022-09-09T10:05:46;98436.69;;;19.06;72.70
59531;BME280;45349;48.692;8.186;2022-09-09T10:08:14;98433.06;;;19.00;73.25
59531;BME280;45349;48.692;8.186;2022-09-09T10:10:52;98441.16;;;19.12;69.91
59531;BME280;45349;48.692;8.186;2022-09-09T10:13:27;98432.91;;;19.27;66.34
59531;BME280;45349;48.692;8.186;2022-09-09T10:16:05;98438.09;;;19.09;66.88
59531;BME280;45349;48.692;8.186;2022-09-09T10:18:52;98433.69;;;19.35;67.76
59531;BME280;45349;48.692;8.186;2022-09-09T10:21:37;98439.84;;;19.60;68.29
59531;BME280;45349;48.692;8.186;2022-09-09T10:24:23;98436.25;;;19.80;69.62
59531;BME280;45349;48.692;8.186;2022-09-09T10:26:57;98434.78;;;19.84;68.97
59531;BME280;45349;48.692;8.186;2022-09-09T10:29:56;98443.94;;;19.88;70.73
59531;BME280;45349;48.692;8.186;2022-09-09T10:32:36;98440.59;;;20.00;68.30
59531;BME280;45349;48.692;8.186;2022-09-09T10:35:10;98439.06;;;20.11;68.94
59531;BME280;45349;48.692;8.186;2022-09-09T10:37:51;98458.50;;;20.04;67.87
59531;BME280;45349;48.692;8.186;2022-09-09T10:40:28;98450.38;;;19.67;70.22
59531;BME280;45349;48.692;8.186;2022-09-09T10:43:03;98446.41;;;19.51;68.47
59531;BME280;45349;48.692;8.186;2022-09-09T10:45:41;98435.00;;;19.18;65.93
59531;BME280;45349;48.692;8.186;2022-09-09T10:48:23;98429.81;;;19.37;65.53
59531;BME280;45349;48.692;8.186;2022-09-09T10:51:03;98430.81;;;19.68;65.67
59531;BME280;45349;48.692;8.186;2022-09-09T10:53:42;98424.47;;;20.01;63.30
59531;BME280;45349;48.692;8.186;2022-09-09T10:56:14;98425.56;;;20.38;62.06
59531;BME280;45349;48.692;8.186;2022-09-09T10:58:46;98419.00;;;20.40;60.99
59531;BME280;45349;48.692;8.186;2022-09-09T11:01:19;98421.47;;;20.79;62.39
59531;BME280;45349;48.692;8.186;2022-09-09T11:03:52;98423.66;;;21.01;57.82
59531;BME280;45349;48.692;8.186;2022-09-09T11:06:27;98412.22;;;21.19;56.64
59531;BME280;45349;48.692;8.186;2022-09-09T11:08:57;98418.31;;;20.89;57.71
59531;BME280;45349;48.692;8.186;2022-09-09T11:11:30;98419.97;;;21.02;56.62
59531;BME280;45349;48.692;8.186;2022-09-09T11:14:02;98406.09;;;21.00;55.46
59531;BME280;45349;48.692;8.186;2022-09-09T11:16:34;98406.50;;;21.03;54.09
59531;BME280;45349;48.692;8.186;2022-09-09T11:19:09;98406.38;;;21.10;49.48
59531;BME280;45349;48.692;8.186;2022-09-09T11:21:58;98405.25;;;21.60;51.73
59531;BME280;45349;48.692;8.186;2022-09-09T11:24:29;98412.06;;;21.56;52.29
59531;BME280;45349;48.692;8.186;2022-09-09T11:27:19;98412.56;;;21.22;50.56
59531;BME280;45349;48.692;8.186;2022-09-09T11:30:02;98427.94;;;20.83;53.33
59531;BME280;45349;48.692;8.186;2022-09-09T11:35:45;98412.34;;;20.56;54.33
59531;BME280;45349;48.692;8.186;2022-09-09T11:38:25;98405.16;;;20.75;51.89
59531;BME280;45349;48.692;8.186;2022-09-09T11:40:57;98409.16;;;20.85;54.62
59531;BME280;45349;48.692;8.186;2022-09-09T11:43:29;98412.84;;;21.02;53.36
59531;BME280;45349;48.692;8.186;2022-09-09T11:45:58;98405.50;;;21.28;52.95
59531;BME280;45349;48.692;8.186;2022-09-09T11:48:32;98404.66;;;20.85;54.12
59531;BME280;45349;48.692;8.186;2022-09-09T11:51:02;98393.75;;;20.93;54.88
59531;BME280;45349;48.692;8.186;2022-09-09T11:53:32;98393.53;;;20.95;54.11
59531;BME280;45349;48.692;8.186;2022-09-09T11:56:07;98388.63;;;21.11;53.07
59531;BME280;45349;48.692;8.186;2022-09-09T11:58:41;98396.72;;;21.16;52.40
59531;BME280;45349;48.692;8.186;2022-09-09T12:01:36;98391.50;;;21.09;52.75
59531;BME280;45349;48.692;8.186;2022-09-09T12:04:26;98393.16;;;21.22;54.40
59531;BME280;45349;48.692;8.186;2022-09-09T12:06:56;98375.97;;;21.24;51.24
59531;BME280;45349;48.692;8.186;2022-09-09T12:12:28;98379.78;;;21.29;51.12
59531;BME280;45349;48.692;8.186;2022-09-09T12:14:59;98385.63;;;21.61;51.39
59531;BME280;45349;48.692;8.186;2022-09-09T12:17:28;98373.31;;;21.91;50.47
59531;BME280;45349;48.692;8.186;2022-09-09T12:20:08;98384.75;;;22.15;49.32
59531;BME280;45349;48.692;8.186;2022-09-09T12:22:45;98379.63;;;22.37;49.65
59531;BME280;45349;48.692;8.186;2022-09-09T12:25:25;98384.75;;;21.79;49.53
59531;BME280;45349;48.692;8.186;2022-09-09T12:28:04;98393.03;;;22.31;49.22
59531;BME280;45349;48.692;8.186;2022-09-09T12:30:35;98376.44;;;22.23;49.84
59531;BME280;45349;48.692;8.186;2022-09-09T12:33:10;98383.97;;;22.03;52.37
59531;BME280;45349;48.692;8.186;2022-09-09T12:35:43;98367.31;;;22.07;49.50
59531;BME280;45349;48.692;8.186;2022-09-09T12:38:13;98361.19;;;21.71;51.54
59531;BME280;45349;48.692;8.186;2022-09-09T12:40:53;98355.84;;;21.59;51.85
59531;BME280;45349;48.692;8.186;2022-09-09T12:43:22;98366.59;;;21.64;53.06
59531;BME280;45349;48.692;8.186;2022-09-09T12:45:50;98376.75;;;21.56;51.84
59531;BME280;45349;48.692;8.186;2022-09-09T12:48:28;98366.66;;;21.34;51.37
59531;BME280;45349;48.692;8.186;2022-09-09T12:50:57;98353.81;;;21.85;51.68
59531;BME280;45349;48.692;8.186;2022-09-09T12:53:26;98342.72;;;21.88;49.45
59531;BME280;45349;48.692;8.186;2022-09-09T12:55:57;98362.34;;;21.63;47.91
59531;BME280;45349;48.692;8.186;2022-09-09T12:58:26;98354.47;;;21.57;49.81
59531;BME280;45349;48.692;8.186;2022-09-09T13:00:58;98360.44;;;21.40;49.51
59531;BME280;45349;48.692;8.186;2022-09-09T13:03:26;98359.34;;;21.29;51.18
59531;BME280;45349;48.692;8.186;2022-09-09T13:05:58;98375.03;;;20.88;53.37
59531;BME280;45349;48.692;8.186;2022-09-09T13:08:26;98366.13;;;20.45;58.01
59531;BME280;45349;48.692;8.186;2022-09-09T13:10:59;98361.78;;;19.95;63.35
59531;BME280;45349;48.692;8.186;2022-09-09T13:13:38;98363.13;;;19.79;64.19
59531;BME280;45349;48.692;8.186;2022-09-09T13:16:06;98360.09;;;19.50;67.33
59531;BME280;45349;48.692;8.186;2022-09-09T13:18:37;98363.59;;;19.44;72.81
59531;BME280;45349;48.692;8.186;2022-09-09T13:21:07;98367.41;;;19.55;70.12
59531;BME280;45349;48.692;8.186;2022-09-09T13:23:35;98361.44;;;19.59;72.56
59531;BME280;45349;48.692;8.186;2022-09-09T13:26:05;98367.16;;;19.56;71.88
59531;BME280;45349;48.692;8.186;2022-09-09T13:28:33;98367.56;;;19.60;68.17
59531;BME280;45349;48.692;8.186;2022-09-09T13:31:01;98367.16;;;19.56;67.85
59531;BME280;45349;48.692;8.186;2022-09-09T13:33:31;98367.94;;;19.64;69.03
59531;BME280;45349;48.692;8.186;2022-09-09T13:36:01;98360.66;;;19.59;66.74